Terminal Aerodrome Forecast
Issued by NWS

Home | Current Version | Previous Version | Text Only | Print | Product List | Glossary On
Versions: 1 2 3 4 5 6 7 8 9 10 11 12 13
620
FTUS45 KFGZ 191729
TAFPGA
TAF
KPGA 191729Z 1918/2018 VRB06KT P6SM SCT070 BKN100
     FM200100 VRB04KT P6SM SCT100=

USA.gov is the U.S. government's official web portal to all federal, state and local government web resources and services.